Time;durP1;ratioP1;P1;durP2;ratioP2;P2;SDS_P1;SDS_P2;PMS_P1;PMS_P2;Temp;Humidity;BMP_temperature;BMP_pressure;BME280_temperature;BME280_humidity;BME280_pressure;Samples;Min_cycle;Max_cycle;Signal;HPM_P1;HPM_P2
2023/09/15 00:02:25;;;;;;;118.18;41.45;;;;;;;21.60;72.62;98704.59;5093170;28;20065;-45
2023/09/15 00:04:51;;;;;;;13.77;4.75;;;;;;;21.49;71.70;98703.03;5093115;28;20063;-45
2023/09/15 00:07:17;;;;;;;8.65;4.35;;;;;;;21.22;72.57;98712.13;5091702;28;20489;-45
2023/09/15 00:09:43;;;;;;;13.40;11.23;;;;;;;21.15;72.55;98711.63;5093057;28;20050;-45
2023/09/15 00:12:09;;;;;;;14.50;5.95;;;;;;;20.87;73.06;98713.78;5092968;28;20481;-45
2023/09/15 00:14:35;;;;;;;12.20;5.30;;;;;;;20.95;74.16;98707.91;5092898;28;20028;-45
2023/09/15 00:17:03;;;;;;;4.43;4.03;;;;;;;20.82;73.48;98713.75;5092942;28;20023;-45
2023/09/15 00:19:29;;;;;;;19.17;14.48;;;;;;;20.63;73.54;98707.38;5092796;28;20455;-45
2023/09/15 00:21:55;;;;;;;7.38;4.15;;;;;;;20.60;74.24;98711.34;5092794;28;20162;-45
2023/09/15 00:24:21;;;;;;;8.35;5.22;;;;;;;20.33;74.08;98709.69;5092703;28;20512;-45
2023/09/15 00:26:48;;;;;;;12.30;9.85;;;;;;;20.15;75.40;98710.19;5093017;28;20031;-45
2023/09/15 00:29:14;;;;;;;14.75;13.35;;;;;;;20.20;75.95;98709.38;5092637;28;20016;-45
2023/09/15 00:31:41;;;;;;;8.52;5.85;;;;;;;20.17;76.16;98709.91;5092641;28;20036;-45
2023/09/15 00:34:07;;;;;;;16.02;7.00;;;;;;;20.45;77.47;98706.78;5092820;28;20122;-45
2023/09/15 00:36:32;;;;;;;5.20;3.67;;;;;;;20.81;76.16;98704.16;5092765;28;20431;-45
2023/09/15 00:38:58;;;;;;;9.25;5.25;;;;;;;20.77;74.69;98712.97;5092523;28;20019;-45
2023/09/15 00:41:24;;;;;;;5.95;5.03;;;;;;;20.81;75.15;98704.16;5092421;28;20390;-45
2023/09/15 00:43:50;;;;;;;9.57;6.32;;;;;;;20.66;74.19;98710.28;5091154;28;20032;-44
2023/09/15 00:46:17;;;;;;;9.75;3.95;;;;;;;20.52;74.96;98714.50;5092363;28;20123;-45
2023/09/15 00:48:45;;;;;;;4.93;3.80;;;;;;;20.44;75.08;98712.38;5092466;28;20052;-45
2023/09/15 00:51:12;;;;;;;33.35;30.05;;;;;;;20.38;75.48;98713.41;5092239;28;20077;-44
2023/09/15 00:53:39;;;;;;;10.13;6.43;;;;;;;20.24;75.07;98711.28;5092474;28;20377;-45
2023/09/15 00:56:06;;;;;;;9.73;7.25;;;;;;;20.09;76.15;98716.56;5090913;28;20032;-45
2023/09/15 00:58:35;;;;;;;15.95;7.40;;;;;;;20.15;76.07;98712.84;5092165;28;20023;-45
2023/09/15 01:01:06;;;;;;;6.00;3.90;;;;;;;20.09;75.84;98709.34;5092616;28;20024;-45
2023/09/15 01:03:34;;;;;;;13.32;4.22;;;;;;;20.08;76.88;98720.25;5091199;28;20059;-44
2023/09/15 01:06:00;;;;;;;9.55;8.52;;;;;;;20.31;75.72;98717.13;5090940;28;20360;-45
2023/09/15 01:08:26;;;;;;;7.75;5.78;;;;;;;20.24;75.21;98713.13;5090763;28;20037;-45
2023/09/15 01:10:51;;;;;;;12.48;5.93;;;;;;;20.43;76.07;98708.91;5090077;28;20123;-45
2023/09/15 01:13:17;;;;;;;4.90;4.30;;;;;;;20.54;75.24;98707.88;5090638;28;20405;-45
2023/09/15 01:15:56;;;;;;;7.72;3.90;;;;;;;20.45;74.52;98703.31;5091983;28;20028;-45
2023/09/15 01:18:38;;;;;;;7.45;4.97;;;;;;;20.22;74.58;98710.75;5091937;28;20398;-45
2023/09/15 01:21:22;;;;;;;16.65;10.10;;;;;;;20.01;75.19;98712.53;5091958;28;20123;-45
2023/09/15 01:24:15;;;;;;;17.88;9.63;;;;;;;19.95;75.52;98708.25;5091935;28;20078;-44
2023/09/15 01:27:13;;;;;;;6.55;4.68;;;;;;;20.09;76.23;98705.91;5091903;28;20024;-45
2023/09/15 01:29:51;;;;;;;21.88;6.80;;;;;;;20.38;75.56;98710.75;5092197;28;20484;-45
2023/09/15 01:32:19;;;;;;;12.45;6.13;;;;;;;20.56;74.59;98712.91;5091807;28;20499;-45
2023/09/15 01:34:52;;;;;;;13.93;3.80;;;;;;;20.74;74.09;98706.28;5090402;28;20016;-45
2023/09/15 01:37:20;;;;;;;11.98;4.55;;;;;;;20.94;73.54;98705.50;5091761;28;20109;-45
2023/09/15 01:39:46;;;;;;;25.52;19.23;;;;;;;21.06;73.30;98710.56;5092026;28;20020;-45
2023/09/15 01:42:12;;;;;;;11.48;6.30;;;;;;;21.08;72.61;98703.88;5091669;28;20520;-45
2023/09/15 01:44:38;;;;;;;9.20;6.22;;;;;;;21.05;72.25;98703.63;5090744;28;20028;-45
2023/09/15 01:47:08;;;;;;;8.65;4.93;;;;;;;21.08;72.62;98705.75;5091658;28;20497;-45
2023/09/15 01:49:34;;;;;;;31.95;28.70;;;;;;;20.99;72.14;98712.69;5091641;28;20081;-45
2023/09/15 01:52:01;;;;;;;11.40;6.90;;;;;;;20.79;72.05;98708.97;5090259;28;20024;-45
2023/09/15 01:54:27;;;;;;;9.80;5.13;;;;;;;20.49;72.44;98718.50;5090185;28;20107;-45
2023/09/15 01:56:52;;;;;;;6.15;3.50;;;;;;;20.15;72.80;98716.28;5090250;28;20601;-45
2023/09/15 01:59:18;;;;;;;14.73;13.52;;;;;;;19.84;73.04;98719.91;5091580;28;20027;-45
2023/09/15 02:01:44;;;;;;;43.05;39.22;;;;;;;19.48;74.15;98728.50;5090197;28;20103;-45
2023/09/15 02:04:10;;;;;;;13.88;12.50;;;;;;;19.25;75.69;98721.69;5091597;28;20063;-45
2023/09/15 02:06:36;;;;;;;11.18;4.57;;;;;;;19.14;76.62;98722.69;5091458;28;20454;-45
2023/09/15 02:09:04;;;;;;;9.90;4.93;;;;;;;19.08;77.10;98719.19;5091427;28;20024;-44
2023/09/15 02:11:30;;;;;;;69.43;62.05;;;;;;;19.11;78.00;98718.66;5091420;28;20035;-45
2023/09/15 02:13:55;;;;;;;13.82;12.38;;;;;;;19.18;77.71;98712.34;5091384;28;20017;-45
2023/09/15 02:16:21;;;;;;;18.48;10.93;;;;;;;19.26;78.30;98725.19;5091366;28;20057;-45
2023/09/15 02:18:47;;;;;;;23.70;14.35;;;;;;;19.54;78.00;98719.47;5091093;28;20032;-45
2023/09/15 02:21:12;;;;;;;8.40;6.22;;;;;;;19.75;77.19;98717.75;5091891;28;20047;-45
2023/09/15 02:23:38;;;;;;;11.93;10.00;;;;;;;19.77;76.22;98727.34;5095150;28;20024;-45
2023/09/15 02:26:04;;;;;;;7.45;6.35;;;;;;;19.83;76.46;98726.31;5095044;28;20032;-45
2023/09/15 02:28:31;;;;;;;9.13;5.38;;;;;;;19.85;75.90;98729.50;5095012;28;20115;-45
2023/09/15 02:30:57;;;;;;;20.95;7.32;;;;;;;19.99;75.90;98732.50;5094980;28;20501;-45
2023/09/15 02:33:23;;;;;;;17.95;5.25;;;;;;;20.04;75.39;98730.66;5093545;28;20035;-45
2023/09/15 02:35:50;;;;;;;6.78;3.55;;;;;;;20.03;75.01;98721.06;5094873;28;20024;-45
2023/09/15 02:38:15;;;;;;;16.08;4.97;;;;;;;19.87;74.71;98722.06;5093483;28;20032;-45
2023/09/15 02:40:41;;;;;;;9.90;4.30;;;;;;;20.00;74.86;98721.59;5094791;28;20493;-45
2023/09/15 02:43:10;;;;;;;6.38;4.78;;;;;;;20.06;73.21;98719.72;5093416;28;20054;-45
2023/09/15 02:45:36;;;;;;;12.80;4.38;;;;;;;20.06;73.21;98728.53;5093365;28;20460;-44
2023/09/15 02:48:03;;;;;;;5.63;5.00;;;;;;;20.20;72.87;98731.50;5094637;28;20032;-45
2023/09/15 02:50:29;;;;;;;13.05;6.25;;;;;;;20.33;72.63;98727.53;5093304;28;20024;-45
2023/09/15 02:52:55;;;;;;;6.50;3.80;;;;;;;20.46;72.27;98734.22;5076731;28;20024;-45
2023/09/15 02:55:21;;;;;;;12.00;4.68;;;;;;;20.48;72.37;98732.09;5094415;28;20072;-45
2023/09/15 02:57:52;;;;;;;14.13;5.70;;;;;;;20.64;72.64;98730.28;5094755;28;20363;-45
2023/09/15 03:00:20;;;;;;;7.20;4.13;;;;;;;20.79;72.15;98732.19;5094449;28;20027;-45
2023/09/15 03:02:46;;;;;;;7.63;3.65;;;;;;;20.80;71.92;98721.22;5094640;28;20393;-45
2023/09/15 03:05:13;;;;;;;12.57;4.15;;;;;;;20.78;72.09;98720.69;5092978;28;20055;-45
2023/09/15 03:07:39;;;;;;;13.50;5.38;;;;;;;20.69;71.86;98722.31;5094212;28;20024;-45
2023/09/15 03:10:09;;;;;;;9.13;3.80;;;;;;;20.55;72.08;98722.00;5092825;28;20020;-45
2023/09/15 03:12:36;;;;;;;15.32;5.50;;;;;;;20.38;72.80;98722.22;5076005;28;20462;-45
2023/09/15 03:15:06;;;;;;;11.43;4.63;;;;;;;20.38;72.98;98713.41;5094037;28;20028;-45
2023/09/15 03:17:33;;;;;;;11.57;6.53;;;;;;;20.30;72.92;98714.72;5094459;28;20153;-45
2023/09/15 03:20:00;;;;;;;8.55;4.53;;;;;;;20.10;72.94;98723.47;5092562;28;20060;-45
2023/09/15 03:22:27;;;;;;;16.15;7.65;;;;;;;19.74;73.46;98723.34;5093939;28;20024;-44
2023/09/15 03:24:55;;;;;;;7.25;5.10;;;;;;;19.33;74.25;98726.53;5093866;28;20028;-45
2023/09/15 03:27:20;;;;;;;6.93;4.30;;;;;;;19.13;75.80;98729.84;5093854;28;20523;-45
2023/09/15 03:29:46;;;;;;;17.42;5.18;;;;;;;19.24;77.10;98727.28;5093857;28;20023;-45
2023/09/15 03:32:12;;;;;;;7.05;4.18;;;;;;;19.39;76.49;98731.91;5093650;28;20514;-45
2023/09/15 03:34:38;;;;;;;12.10;4.85;;;;;;;19.35;76.39;98731.59;5093033;28;20054;-45
2023/09/15 03:37:04;;;;;;;11.63;4.65;;;;;;;19.45;76.48;98730.88;5092379;28;20108;-45
2023/09/15 03:39:30;;;;;;;12.05;8.70;;;;;;;19.33;76.14;98731.06;5092315;28;20049;-45
2023/09/15 03:41:56;;;;;;;7.38;4.43;;;;;;;19.33;76.82;98731.06;5093809;28;20016;-45
2023/09/15 03:44:22;;;;;;;10.07;5.05;;;;;;;19.45;76.44;98728.22;5093577;28;20393;-45
2023/09/15 03:46:48;;;;;;;12.85;7.30;;;;;;;19.52;76.19;98723.47;5093505;28;20046;-45
2023/09/15 03:49:14;;;;;;;9.23;4.70;;;;;;;19.62;75.77;98726.19;5092146;28;20569;-45
2023/09/15 03:51:40;;;;;;;11.57;7.13;;;;;;;19.50;75.05;98730.91;5093296;28;20063;-45
2023/09/15 03:54:06;;;;;;;5.25;4.15;;;;;;;19.33;75.03;98731.84;5093314;28;20044;-45
2023/09/15 03:56:32;;;;;;;7.35;4.07;;;;;;;19.19;75.47;98733.34;5093361;28;20019;-45
2023/09/15 03:58:58;;;;;;;13.82;7.35;;;;;;;19.24;76.83;98730.75;5093236;28;20051;-45
2023/09/15 04:01:25;;;;;;;9.63;5.38;;;;;;;19.60;76.57;98736.28;5093264;28;20394;-45
2023/09/15 04:03:51;;;;;;;19.67;6.97;;;;;;;19.75;75.49;98727.59;5091905;28;20035;-45
2023/09/15 04:06:17;;;;;;;5.03;4.45;;;;;;;19.72;74.82;98720.94;5093155;28;20032;-45
2023/09/15 04:08:43;;;;;;;16.17;4.43;;;;;;;19.79;74.53;98727.88;5093085;28;20031;-45
2023/09/15 04:11:08;;;;;;;19.73;6.78;;;;;;;19.87;74.13;98727.41;5091776;28;20020;-45
2023/09/15 04:13:34;;;;;;;9.07;4.65;;;;;;;19.85;73.79;98726.84;5092949;28;20512;-45
2023/09/15 04:16:00;;;;;;;19.05;9.32;;;;;;;19.70;73.40;98724.91;5092926;28;20036;-45
2023/09/15 04:18:26;;;;;;;6.95;5.55;;;;;;;19.44;73.24;98719.44;5092831;28;20024;-45
2023/09/15 04:20:53;;;;;;;8.02;5.88;;;;;;;19.11;73.73;98715.22;5092635;28;20094;-45
2023/09/15 04:23:19;;;;;;;13.38;7.75;;;;;;;19.07;75.32;98722.09;5092872;28;20035;-45
2023/09/15 04:25:45;;;;;;;8.68;4.45;;;;;;;19.22;75.31;98719.56;5092763;28;20024;-45
2023/09/15 04:28:11;;;;;;;7.13;4.45;;;;;;;19.19;74.45;98721.91;5091749;28;20210;-45
2023/09/15 04:30:37;;;;;;;20.88;8.02;;;;;;;19.00;74.40;98717.00;5091729;28;20409;-45
2023/09/15 04:33:03;;;;;;;17.58;4.57;;;;;;;18.79;74.95;98718.69;5091262;28;20028;-45
2023/09/15 04:35:29;;;;;;;7.40;4.13;;;;;;;18.68;75.81;98715.09;5092636;28;20028;-45
2023/09/15 04:37:54;;;;;;;9.07;4.55;;;;;;;18.71;76.11;98714.63;5092530;28;20052;-44
2023/09/15 04:40:20;;;;;;;21.95;11.10;;;;;;;18.72;76.53;98723.38;5092526;28;20058;-45
2023/09/15 04:42:46;;;;;;;12.70;4.75;;;;;;;18.77;76.82;98723.41;5092465;28;20056;-45
2023/09/15 04:45:12;;;;;;;11.90;4.60;;;;;;;18.94;77.20;98726.78;5090188;28;20055;-45
2023/09/15 04:47:40;;;;;;;24.88;7.90;;;;;;;19.32;76.84;98721.50;5091104;28;20028;-45
2023/09/15 04:50:07;;;;;;;6.75;3.83;;;;;;;19.63;75.62;98716.34;5092556;28;20389;-45
2023/09/15 04:52:33;;;;;;;15.13;4.82;;;;;;;19.76;74.91;98721.22;5074249;28;20036;-44
2023/09/15 04:54:59;;;;;;;36.70;32.55;;;;;;;19.92;74.50;98719.41;5092218;28;20024;-45
2023/09/15 04:57:25;;;;;;;12.00;6.25;;;;;;;20.05;73.64;98721.59;5092119;28;20020;-45
2023/09/15 04:59:53;;;;;;;19.92;6.93;;;;;;;20.09;73.05;98708.56;5092216;28;20077;-45
2023/09/15 05:02:22;;;;;;;35.00;27.05;;;;;;;20.09;72.50;98719.22;5092214;28;20020;-45
2023/09/15 05:04:48;;;;;;;56.47;44.92;;;;;;;19.94;72.54;98714.63;5092181;28;20115;-45
2023/09/15 05:07:15;;;;;;;16.20;7.15;;;;;;;20.01;73.05;98725.84;5092090;28;20036;-45
2023/09/15 05:09:40;;;;;;;16.95;7.70;;;;;;;20.12;72.85;98722.16;5092065;28;20114;-45
2023/09/15 05:12:06;;;;;;;21.55;7.05;;;;;;;20.12;72.06;98724.81;5090701;28;20103;-45
2023/09/15 05:14:32;;;;;;;13.77;5.13;;;;;;;20.04;72.16;98721.84;5090651;28;20147;-45
2023/09/15 05:16:57;;;;;;;15.45;4.47;;;;;;;20.10;72.14;98724.28;5073888;28;20494;-45
2023/09/15 05:19:23;;;;;;;22.05;9.23;;;;;;;20.14;72.10;98724.53;5090446;28;20048;-45
2023/09/15 05:21:49;;;;;;;20.35;6.50;;;;;;;20.20;72.04;98720.03;5090643;28;20501;-45
2023/09/15 05:24:14;;;;;;;7.38;3.50;;;;;;;20.25;71.65;98725.41;5091911;28;20032;-45
2023/09/15 05:26:40;;;;;;;12.48;3.83;;;;;;;20.27;71.34;98717.94;5091848;28;20443;-45
2023/09/15 05:29:06;;;;;;;16.73;5.45;;;;;;;20.24;70.88;98723.78;5091858;28;20513;-45
2023/09/15 05:31:31;;;;;;;8.02;4.10;;;;;;;20.17;71.07;98728.56;5091865;28;20023;-45
2023/09/15 05:33:57;;;;;;;17.67;7.10;;;;;;;20.05;71.14;98726.94;5090392;28;20020;-45
2023/09/15 05:36:24;;;;;;;11.25;5.35;;;;;;;19.87;71.31;98724.72;5091843;28;20413;-45
2023/09/15 05:38:50;;;;;;;13.93;5.25;;;;;;;19.82;71.69;98725.50;5091835;28;20031;-45
2023/09/15 05:41:16;;;;;;;22.00;15.77;;;;;;;19.84;72.05;98722.56;5092102;28;20024;-45
2023/09/15 05:43:42;;;;;;;11.57;6.75;;;;;;;19.80;71.47;98721.50;5090452;28;20034;-45
2023/09/15 05:46:07;;;;;;;15.25;6.85;;;;;;;19.59;71.83;98724.03;5091706;28;20077;-45
2023/09/15 05:48:33;;;;;;;8.57;4.45;;;;;;;19.85;72.07;98724.19;5091753;28;20490;-45
2023/09/15 05:50:59;;;;;;;15.98;5.82;;;;;;;20.40;70.69;98724.63;5090304;28;20024;-45
2023/09/15 05:53:25;;;;;;;9.07;4.32;;;;;;;20.95;68.50;98715.91;5091576;28;20366;-45
2023/09/15 05:55:51;;;;;;;8.35;6.50;;;;;;;21.43;66.68;98712.13;5091559;28;20024;-44
2023/09/15 05:58:16;;;;;;;12.18;5.20;;;;;;;21.84;65.81;98712.00;5094257;28;20024;-45
2023/09/15 06:00:42;;;;;;;43.85;8.82;;;;;;;22.25;64.56;98715.28;5094339;28;20089;-45
2023/09/15 06:03:09;;;;;;;20.73;6.03;;;;;;;22.70;63.14;98715.28;5095565;28;20020;-45
2023/09/15 06:05:34;;;;;;;16.25;6.03;;;;;;;23.04;61.86;98709.97;5094230;28;20031;-45
2023/09/15 06:08:03;;;;;;;20.42;5.72;;;;;;;23.30;61.09;98707.84;5095512;28;20028;-45
2023/09/15 06:10:29;;;;;;;14.98;5.15;;;;;;;23.53;59.96;98708.13;5095453;28;20491;-45
2023/09/15 06:12:55;;;;;;;13.75;4.50;;;;;;;23.78;59.29;98706.25;5093939;28;20028;-45
2023/09/15 06:15:21;;;;;;;14.65;4.97;;;;;;;24.02;58.45;98704.34;5095268;28;20035;-45
2023/09/15 06:17:48;;;;;;;5.80;4.30;;;;;;;23.73;57.74;98704.41;5093940;28;20066;-45
2023/09/15 06:20:14;;;;;;;6.03;3.60;;;;;;;23.20;59.39;98705.25;5095055;28;20097;-45
2023/09/15 06:22:40;;;;;;;14.13;6.00;;;;;;;23.11;60.91;98707.72;5093857;28;20028;-44
2023/09/15 06:25:06;;;;;;;8.25;4.10;;;;;;;23.42;60.42;98707.44;5095112;28;20051;-45
2023/09/15 06:27:34;;;;;;;19.20;5.53;;;;;;;23.82;59.33;98712.63;5095071;28;20063;-45
2023/09/15 06:30:03;;;;;;;8.65;4.78;;;;;;;24.35;57.99;98715.19;5093705;28;20093;-45
2023/09/15 06:32:29;;;;;;;38.85;7.28;;;;;;;24.88;56.95;98717.59;5094969;28;20016;-45
2023/09/15 06:34:54;;;;;;;69.38;8.93;;;;;;;25.42;54.55;98709.19;5094834;28;20512;-45
2023/09/15 06:37:20;;;;;;;93.85;11.75;;;;;;;25.98;53.61;98709.97;5094924;28;20024;-45
2023/09/15 06:39:46;;;;;;;61.33;9.50;;;;;;;26.48;51.40;98702.69;5094830;28;20024;-45
2023/09/15 06:42:12;;;;;;;66.05;9.60;;;;;;;27.00;49.69;98701.44;5094785;28;20032;-45
2023/09/15 06:44:37;;;;;;;25.65;5.70;;;;;;;27.57;48.34;98696.19;5094779;28;20060;-45
2023/09/15 06:47:04;;;;;;;32.45;9.32;;;;;;;28.12;46.53;98694.91;5094709;28;20126;-45
2023/09/15 06:49:31;;;;;;;21.50;5.35;;;;;;;28.41;46.06;98690.78;5094690;28;20016;-45
2023/09/15 06:51:57;;;;;;;31.80;5.32;;;;;;;28.96;44.67;98690.09;5093456;28;20020;-45
2023/09/15 06:54:23;;;;;;;40.90;7.45;;;;;;;29.49;43.47;98693.41;5093181;28;20582;-45
2023/09/15 06:56:50;;;;;;;76.15;14.85;;;;;;;29.61;42.71;98685.41;5094459;28;20028;-45
2023/09/15 06:59:16;;;;;;;58.85;9.60;;;;;;;29.91;42.40;98696.25;5094384;28;20073;-46
2023/09/15 07:01:41;;;;;;;42.05;7.50;;;;;;;30.44;41.17;98683.91;5093054;28;20024;-45
2023/09/15 07:04:07;;;;;;;46.70;7.97;;;;;;;31.01;40.06;98685.13;5093036;28;20039;-45
2023/09/15 07:06:33;;;;;;;20.88;4.47;;;;;;;31.34;39.08;98686.97;5092995;28;20032;-46
2023/09/15 07:08:59;;;;;;;54.03;7.35;;;;;;;31.63;38.25;98686.00;5091834;28;20051;-46
2023/09/15 07:11:25;;;;;;;33.90;7.15;;;;;;;31.83;37.67;98681.56;5094169;28;20389;-46
2023/09/15 07:13:50;;;;;;;37.00;7.03;;;;;;;31.96;37.55;98692.41;5092867;28;20398;-46
2023/09/15 07:16:16;;;;;;;14.23;6.28;;;;;;;32.01;37.07;98684.03;5094048;28;20028;-46
2023/09/15 07:18:42;;;;;;;33.42;6.07;;;;;;;32.23;37.14;98694.38;5093849;28;20077;-46
2023/09/15 07:21:08;;;;;;;17.90;5.03;;;;;;;32.27;36.43;98697.19;5093990;28;20507;-46
2023/09/15 07:23:34;;;;;;;24.48;5.80;;;;;;;32.48;35.63;98696.19;5093929;28;20027;-46
2023/09/15 07:25:59;;;;;;;23.52;6.57;;;;;;;32.48;36.05;98686.16;5092480;28;20030;-46
2023/09/15 07:28:25;;;;;;;34.00;6.25;;;;;;;32.56;35.61;98692.56;5093843;28;20032;-46
2023/09/15 07:30:51;;;;;;;34.17;9.23;;;;;;;32.70;35.52;98686.72;5093785;28;20169;-46
2023/09/15 07:33:17;;;;;;;45.45;7.72;;;;;;;32.84;35.38;98684.41;5092329;28;20482;-46
2023/09/15 07:35:42;;;;;;;86.65;10.13;;;;;;;33.12;35.32;98689.81;5092273;28;20031;-46
2023/09/15 07:38:08;;;;;;;112.47;13.25;;;;;;;33.27;34.58;98690.16;5092351;28;20036;-46
2023/09/15 07:40:34;;;;;;;64.15;7.10;;;;;;;33.50;34.28;98687.59;5093666;28;20375;-46
2023/09/15 07:43:00;;;;;;;61.83;9.48;;;;;;;33.61;34.07;98694.88;5093638;28;20104;-46
2023/09/15 07:45:27;;;;;;;16.08;4.60;;;;;;;33.66;33.79;98684.88;5093594;28;20091;-46
2023/09/15 07:47:52;;;;;;;19.02;5.00;;;;;;;33.82;33.81;98691.06;5093753;28;20032;-46
2023/09/15 07:50:18;;;;;;;20.73;5.43;;;;;;;34.01;33.33;98684.88;5092153;28;20020;-46
2023/09/15 07:52:46;;;;;;;16.98;4.55;;;;;;;34.13;33.05;98678.47;5092074;28;20078;-46
2023/09/15 07:55:12;;;;;;;13.68;4.30;;;;;;;34.42;32.74;98686.09;5093174;28;20054;-46
2023/09/15 07:57:39;;;;;;;19.60;4.50;;;;;;;34.81;31.95;98679.84;5093320;28;20028;-46
2023/09/15 08:00:06;;;;;;;20.00;5.22;;;;;;;34.93;31.77;98684.31;5093307;28;20427;-46
2023/09/15 08:02:32;;;;;;;28.00;5.32;;;;;;;35.09;31.48;98687.72;5091836;28;20416;-46
2023/09/15 08:04:58;;;;;;;48.88;7.00;;;;;;;35.46;30.96;98689.13;5091780;28;20043;-46
2023/09/15 08:07:24;;;;;;;84.00;11.43;;;;;;;35.89;30.32;98679.63;5093002;28;20497;-46
2023/09/15 08:09:50;;;;;;;61.95;7.68;;;;;;;36.15;29.93;98680.75;5092880;28;20026;-46
2023/09/15 08:12:19;;;;;;;53.28;9.05;;;;;;;36.25;29.76;98674.63;5074747;28;20024;-46
2023/09/15 08:14:46;;;;;;;28.67;5.50;;;;;;;36.47;29.64;98669.41;5092818;28;20035;-46
2023/09/15 08:17:12;;;;;;;10.18;3.40;;;;;;;36.96;28.79;98679.28;5093169;28;20393;-46
2023/09/15 08:19:39;;;;;;;15.48;4.18;;;;;;;36.64;29.18;98673.50;5092441;28;20067;-46
2023/09/15 08:22:05;;;;;;;9.73;3.50;;;;;;;36.24;29.13;98670.34;5092945;28;20028;-46
2023/09/15 08:24:31;;;;;;;23.58;4.55;;;;;;;35.81;30.51;98672.47;5091498;28;20405;-46
2023/09/15 08:26:57;;;;;;;24.42;4.55;;;;;;;36.15;29.86;98675.28;5092783;28;20093;-47
2023/09/15 08:29:23;;;;;;;27.38;5.75;;;;;;;35.90;30.45;98669.47;5092779;28;20107;-46
2023/09/15 08:31:48;;;;;;;33.83;6.45;;;;;;;35.67;30.59;98672.28;5092651;28;20031;-46
2023/09/15 08:34:15;;;;;;;154.60;15.85;;;;;;;35.94;30.52;98683.97;5091246;28;20153;-46
2023/09/15 08:36:41;;;;;;;149.20;13.60;;;;;;;36.42;30.31;98675.97;5092548;28;20020;-46
2023/09/15 08:39:07;;;;;;;92.22;9.93;;;;;;;36.83;29.58;98675.28;5092554;28;20490;-46
2023/09/15 08:42:03;;;;;;;51.17;7.20;;;;;;;36.78;29.26;98670.91;5092468;28;20023;-46
2023/09/15 08:44:32;;;;;;;18.55;4.00;;;;;;;37.10;28.50;98671.19;5091163;28;20044;-46
2023/09/15 08:47:00;;;;;;;44.28;7.40;;;;;;;37.53;27.76;98665.25;5091245;28;20024;-46
2023/09/15 08:49:27;;;;;;;16.60;3.60;;;;;;;37.75;27.92;98669.75;5092546;28;20489;-47
2023/09/15 08:51:55;;;;;;;15.00;4.05;;;;;;;38.08;27.57;98661.69;5090909;28;20077;-46
2023/09/15 08:54:22;;;;;;;19.02;3.92;;;;;;;38.03;27.26;98664.75;5092173;28;20620;-47
2023/09/15 08:56:48;;;;;;;9.80;3.20;;;;;;;38.49;26.91;98669.63;5090905;28;20024;-47
2023/09/15 08:59:17;;;;;;;29.48;5.60;;;;;;;38.96;26.30;98662.28;5092168;28;20020;-47
2023/09/15 09:01:43;;;;;;;37.65;6.65;;;;;;;38.91;25.83;98660.69;5091045;28;20020;-47
2023/09/15 09:04:10;;;;;;;9.65;3.53;;;;;;;38.63;25.29;98668.91;5090794;28;20516;-47
2023/09/15 09:06:36;;;;;;;3.42;2.17;;;;;;;38.17;25.13;98671.13;5092113;28;20386;-47
2023/09/15 09:09:04;;;;;;;7.57;2.25;;;;;;;36.66;27.11;98666.50;5092249;28;20051;-46
2023/09/15 09:11:31;;;;;;;6.47;2.72;;;;;;;36.31;27.17;98666.88;5091945;28;20081;-46
2023/09/15 09:13:57;;;;;;;7.80;2.83;;;;;;;35.91;28.08;98663.63;5090619;28;20028;-46
2023/09/15 09:16:23;;;;;;;8.23;2.88;;;;;;;35.67;28.97;98664.09;5092020;28;20494;-46
2023/09/15 09:18:59;;;;;;;5.90;2.35;;;;;;;35.86;28.45;98657.72;5091588;28;20026;-46
2023/09/15 09:21:29;;;;;;;2.53;2.25;;;;;;;35.59;28.59;98657.72;5090674;28;20024;-46
2023/09/15 09:23:56;;;;;;;4.22;2.78;;;;;;;35.86;28.57;98660.44;5091921;28;20028;-46
2023/09/15 09:26:22;;;;;;;8.07;3.33;;;;;;;36.09;28.88;98655.66;5091865;28;20020;-46
2023/09/15 09:28:48;;;;;;;19.73;4.63;;;;;;;36.45;28.99;98652.59;5092083;28;20397;-46
2023/09/15 09:31:15;;;;;;;4.63;2.70;;;;;;;37.40;27.22;98656.56;5093795;28;20028;-46
2023/09/15 09:33:42;;;;;;;4.18;3.05;;;;;;;37.41;26.53;98658.16;5098468;28;20088;-46
2023/09/15 09:36:16;;;;;;;5.70;2.60;;;;;;;37.01;26.71;98648.84;5098548;28;20017;-46
2023/09/15 09:38:43;;;;;;;7.80;2.65;;;;;;;36.78;27.54;98647.09;5098508;28;20554;-46
2023/09/15 09:41:13;;;;;;;5.32;2.70;;;;;;;36.99;27.07;98645.69;5098505;28;20069;-46
2023/09/15 09:43:40;;;;;;;7.47;2.97;;;;;;;37.89;26.17;98647.09;5098391;28;20031;-46
2023/09/15 09:46:06;;;;;;;4.10;2.45;;;;;;;38.20;24.67;98647.63;5097195;28;20101;-47
2023/09/15 09:48:36;;;;;;;7.47;3.20;;;;;;;37.87;25.65;98646.72;5098438;28;20483;-47
2023/09/15 09:51:03;;;;;;;11.57;3.10;;;;;;;37.70;25.92;98650.91;5098483;28;20024;-46
2023/09/15 09:53:32;;;;;;;3.17;2.53;;;;;;;37.76;25.74;98643.13;5098343;28;20031;-47
2023/09/15 09:56:01;;;;;;;5.88;2.97;;;;;;;37.60;25.51;98629.72;5098285;28;20024;-46
2023/09/15 09:58:27;;;;;;;16.95;3.95;;;;;;;37.73;25.46;98631.00;5096993;28;20031;-46
2023/09/15 10:00:53;;;;;;;7.47;2.70;;;;;;;38.06;25.49;98639.38;5096950;28;20032;-47
2023/09/15 10:03:21;;;;;;;4.45;2.97;;;;;;;38.80;24.63;98621.53;5098321;28;20032;-47
2023/09/15 10:05:48;;;;;;;10.95;3.83;;;;;;;39.29;24.21;98619.91;5098499;28;20060;-47
2023/09/15 10:08:15;;;;;;;6.25;3.20;;;;;;;38.89;23.36;98618.38;5098273;28;20505;-46
2023/09/15 10:10:44;;;;;;;5.28;2.45;;;;;;;37.30;25.51;98627.19;5098161;28;20056;-46
2023/09/15 10:13:11;;;;;;;5.75;2.50;;;;;;;36.49;26.42;98624.13;5098361;28;20036;-46
2023/09/15 10:15:45;;;;;;;4.25;2.67;;;;;;;36.24;27.15;98618.41;5096962;28;20084;-46
2023/09/15 10:18:15;;;;;;;2.58;2.33;;;;;;;35.90;27.11;98612.09;5098065;28;20032;-46
2023/09/15 10:20:47;;;;;;;3.13;2.40;;;;;;;35.76;27.31;98620.94;5096657;28;20047;-47
2023/09/15 10:23:13;;;;;;;4.50;2.30;;;;;;;35.58;27.24;98616.00;5098156;28;20012;-46
2023/09/15 10:25:44;;;;;;;2.88;2.20;;;;;;;35.45;27.67;98622.81;5096906;28;20105;-46
2023/09/15 10:28:14;;;;;;;3.33;2.30;;;;;;;35.41;27.59;98613.78;5096791;28;20072;-46
2023/09/15 10:30:40;;;;;;;5.25;2.30;;;;;;;35.14;27.74;98608.31;5098604;28;20063;-46
2023/09/15 10:33:08;;;;;;;2.90;2.28;;;;;;;35.02;28.21;98613.97;5097987;28;20026;-46
2023/09/15 10:35:34;;;;;;;6.57;3.55;;;;;;;35.31;28.20;98608.97;5098281;28;20400;-46
2023/09/15 10:38:03;;;;;;;5.28;2.35;;;;;;;35.31;27.97;98608.97;5098106;28;20030;-46
2023/09/15 10:40:49;;;;;;;6.10;3.05;;;;;;;35.00;28.32;98608.09;5098027;28;20026;-46
2023/09/15 10:43:19;;;;;;;7.25;2.90;;;;;;;35.04;28.52;98598.03;5094570;28;20089;-46
2023/09/15 10:45:55;;;;;;;3.28;2.40;;;;;;;35.29;28.04;98597.63;5094721;28;20027;-46
2023/09/15 10:48:22;;;;;;;7.32;2.50;;;;;;;35.33;27.74;98593.00;5094729;28;20020;-46
2023/09/15 10:50:48;;;;;;;5.05;2.45;;;;;;;34.51;28.50;98593.25;5093402;28;20543;-46
2023/09/15 10:53:15;;;;;;;4.15;2.70;;;;;;;34.23;29.58;98598.97;5093268;28;20024;-46
2023/09/15 10:55:40;;;;;;;2.97;2.60;;;;;;;34.50;28.70;98579.97;5094488;28;20588;-46
2023/09/15 10:58:06;;;;;;;6.70;2.50;;;;;;;34.12;29.56;98578.84;5094533;28;20442;-46
2023/09/15 11:00:33;;;;;;;10.38;3.08;;;;;;;34.53;29.63;98577.31;5094467;28;20024;-46
2023/09/15 11:03:01;;;;;;;9.77;3.00;;;;;;;35.20;28.60;98570.63;5094413;28;20016;-46
2023/09/15 11:05:30;;;;;;;15.63;3.55;;;;;;;36.13;27.50;98560.88;5094348;28;20020;-46
2023/09/15 11:07:56;;;;;;;4.60;2.38;;;;;;;36.80;26.87;98570.13;5094309;28;20046;-46
2023/09/15 11:10:34;;;;;;;26.67;5.05;;;;;;;36.99;26.87;98566.34;5094213;28;20028;-46
2023/09/15 11:13:02;;;;;;;26.10;3.47;;;;;;;37.03;25.82;98553.50;5094108;28;20061;-46
2023/09/15 11:15:28;;;;;;;14.02;3.08;;;;;;;36.46;25.70;98547.53;5094084;28;20036;-46
2023/09/15 11:17:54;;;;;;;6.13;2.30;;;;;;;36.08;26.61;98552.22;5094091;28;20397;-46
2023/09/15 11:20:21;;;;;;;2.17;1.98;;;;;;;35.78;26.46;98545.66;5092611;28;20393;-46
2023/09/15 11:22:47;;;;;;;3.67;2.20;;;;;;;35.10;27.77;98536.53;5092812;28;20026;-46
2023/09/15 11:25:14;;;;;;;14.40;3.80;;;;;;;35.61;27.00;98532.56;5092800;28;20024;-46
2023/09/15 11:27:40;;;;;;;125.30;9.57;;;;;;;35.72;26.71;98492.53;5093954;28;20020;-46